Airport Name : Winkler Co

Other Name : Winkler Co

ICAO : KINK

IATA : INK

FAA : INK

Latitude : 31.779628

Longitude : -103.201361

Local Date and Time : 01 Jan 0001 00:00

 

TAF (Terminal Aerodrome Forecast)

KINK 210520Z 2106/2206 03007KT P6SM FEW250 FM211600 03009KT P6SM SCT045 OVC170 FM220200 06011KT P6SM OVC035

 

METAR (METeorological Aerodrome Report)

KINK 210653Z AUTO 14003KT BKN120 24/17 A3008 RMK AO2 SLP136 T02440167 $

KINK 210553Z AUTO 13011KT CLR 25/16 A3007 RMK AO2 LTG DSNT NW SLP132 T02500161 10350 20250 403670233 51010 $

KINK 210453Z AUTO 11009KT CLR 26/16 A3006 RMK AO2 SLP130 T02560161 $

KINK 210353Z AUTO 11015KT CLR 26/17 A3006 RMK AO2 PK WND 11026/0321 SLP130 T02610167 $